Time;durP1;ratioP1;P1;durP2;ratioP2;P2;SDS_P1;SDS_P2;PMS_P1;PMS_P2;Temp;Humidity;BMP_temperature;BMP_pressure;BME280_temperature;BME280_humidity;BME280_pressure;Samples;Min_cycle;Max_cycle;Signal;HPM_P1;HPM_P2
2021/06/01 00:00:37;;;;;;;5.20;3.90;;;;;;;10.18;63.69;101145.78;4878580;28;1141287;-65
2021/06/01 00:03:03;;;;;;;4.40;3.65;;;;;;;10.22;63.59;101147.75;4918602;28;122039;-65
2021/06/01 00:05:29;;;;;;;3.88;3.40;;;;;;;10.18;63.54;101159.25;4897583;28;113419;-65
2021/06/01 00:07:55;;;;;;;4.03;3.60;;;;;;;10.21;63.70;101150.69;4898351;28;125290;-68
2021/06/01 00:10:21;;;;;;;4.88;3.20;;;;;;;10.35;63.21;101146.59;4899081;28;126420;-68
2021/06/01 00:12:47;;;;;;;4.43;3.25;;;;;;;10.05;64.54;101149.63;4898990;28;121117;-65
2021/06/01 00:15:13;;;;;;;4.78;3.17;;;;;;;10.12;64.35;101147.59;4897894;28;120579;-68
2021/06/01 00:17:39;;;;;;;4.20;3.08;;;;;;;10.13;64.36;101154.59;4865313;28;100199;-68
2021/06/01 00:20:07;;;;;;;4.07;3.25;;;;;;;10.04;64.72;101151.53;4882248;28;98121;-65
2021/06/01 00:22:33;;;;;;;4.25;3.42;;;;;;;9.89;65.00;101145.09;4880884;28;107735;-65
2021/06/01 00:25:00;;;;;;;4.05;3.28;;;;;;;10.12;63.87;101146.78;4899676;28;98786;-68
2021/06/01 00:27:26;;;;;;;4.47;2.70;;;;;;;10.03;63.92;101146.41;4899162;28;98690;-68
2021/06/01 00:29:52;;;;;;;3.17;2.78;;;;;;;10.02;63.53;101147.44;4890352;28;103803;-65
2021/06/01 00:32:18;;;;;;;5.30;2.70;;;;;;;9.93;64.51;101144.34;4906276;28;121828;-65
2021/06/01 00:34:47;;;;;;;4.90;3.05;;;;;;;9.66;64.94;101146.06;4900264;28;128772;-68
2021/06/01 00:37:13;;;;;;;3.47;2.72;;;;;;;9.68;65.07;101144.78;4918363;28;127143;-68
2021/06/01 00:39:39;;;;;;;3.75;3.33;;;;;;;9.16;66.56;101149.53;4899082;28;127633;-68
2021/06/01 00:42:06;;;;;;;4.43;2.95;;;;;;;9.58;65.49;101141.91;4899253;28;108805;-67
2021/06/01 00:44:32;;;;;;;3.80;3.25;;;;;;;9.52;66.60;101148.28;4900046;28;99323;-65
2021/06/01 00:46:58;;;;;;;4.30;3.13;;;;;;;9.59;65.97;101157.84;4897730;28;120897;-65
2021/06/01 00:49:24;;;;;;;4.72;3.10;;;;;;;9.57;65.85;101156.44;4899322;28;98150;-68
2021/06/01 00:51:50;;;;;;;3.55;3.17;;;;;;;9.66;65.81;101152.28;4897973;28;122875;-65
2021/06/01 00:54:16;;;;;;;4.00;3.50;;;;;;;9.28;66.22;101151.13;4900036;28;98284;-65
2021/06/01 00:56:42;;;;;;;3.45;3.13;;;;;;;9.59;65.44;101152.44;4897962;28;128751;-68
2021/06/01 00:59:08;;;;;;;4.30;3.50;;;;;;;9.55;66.03;101145.94;4901386;28;97959;-68
2021/06/01 01:01:34;;;;;;;7.43;4.57;;;;;;;9.48;66.15;101147.94;4902949;28;97815;-65
2021/06/01 01:04:01;;;;;;;5.97;3.90;;;;;;;9.25;66.51;101142.69;4901674;28;98368;-65
2021/06/01 01:06:58;;;;;;;5.85;4.18;;;;;;;9.23;66.30;101150.19;4884725;28;97782;-68
2021/06/01 01:09:26;;;;;;;5.97;4.03;;;;;;;9.25;66.49;101145.41;4888228;28;98136;-64
2021/06/01 01:12:08;;;;;;;6.25;4.07;;;;;;;9.26;66.42;101144.31;4884910;28;98299;-65
2021/06/01 01:14:40;;;;;;;5.33;3.60;;;;;;;9.18;66.87;101145.53;4901912;28;98270;-65
2021/06/01 01:17:12;;;;;;;5.13;3.83;;;;;;;8.96;67.82;101155.31;4902106;28;98340;-65
2021/06/01 01:19:49;;;;;;;4.63;3.90;;;;;;;9.00;67.33;101145.72;4902490;28;112872;-68
2021/06/01 01:22:17;;;;;;;5.25;3.85;;;;;;;9.03;67.18;101138.00;4887973;28;97855;-68
2021/06/01 01:25:02;;;;;;;4.32;3.78;;;;;;;8.98;66.94;101134.41;4886909;28;99222;-68
2021/06/01 01:28:06;;;;;;;6.82;4.22;;;;;;;8.80;67.89;101135.41;4912973;28;98487;-68
2021/06/01 01:30:40;;;;;;;4.70;3.75;;;;;;;8.80;67.61;101132.72;4869468;28;98206;-64
2021/06/01 01:33:16;;;;;;;5.10;3.92;;;;;;;8.79;68.01;101136.47;4884879;28;98050;-68
2021/06/01 01:35:43;;;;;;;4.88;3.40;;;;;;;8.82;67.51;101125.22;4884791;28;98383;-68
2021/06/01 01:38:09;;;;;;;4.82;3.63;;;;;;;9.00;66.97;101124.22;4901008;28;112275;-65
2021/06/01 01:40:37;;;;;;;5.38;3.90;;;;;;;8.90;67.12;101129.41;4850849;28;127776;-68
2021/06/01 01:43:06;;;;;;;5.72;3.67;;;;;;;8.94;66.48;101128.69;4852557;28;97997;-65
2021/06/01 01:45:36;;;;;;;4.97;4.25;;;;;;;8.89;66.27;101133.16;4883519;28;98315;-68
2021/06/01 01:50:51;;;;;;;4.25;3.80;;;;;;;8.34;68.20;101131.75;4886463;28;98130;-66
2021/06/01 01:53:17;;;;;;;5.65;4.22;;;;;;;8.49;68.04;101136.66;4883229;28;98244;-68
2021/06/01 01:55:46;;;;;;;5.80;3.90;;;;;;;8.50;67.90;101133.75;4895375;28;108021;-65
2021/06/01 01:58:13;;;;;;;5.38;4.07;;;;;;;8.40;67.87;101130.84;4903303;28;98415;-68
2021/06/01 02:00:39;;;;;;;4.40;4.00;;;;;;;8.62;67.24;101122.97;4920974;28;98154;-65
2021/06/01 02:03:06;;;;;;;5.00;3.40;;;;;;;8.56;67.33;101129.28;4920223;28;122291;-68
2021/06/01 02:05:32;;;;;;;6.35;3.53;;;;;;;8.69;67.44;101128.22;4902350;28;102590;-67
2021/06/01 02:07:58;;;;;;;4.88;3.78;;;;;;;8.63;67.21;101129.16;4919055;28;98497;-68
2021/06/01 02:10:24;;;;;;;4.80;3.60;;;;;;;8.34;68.00;101129.88;4902601;28;98304;-64
2021/06/01 02:12:50;;;;;;;4.97;3.83;;;;;;;8.34;67.90;101124.50;4920768;28;122386;-64
2021/06/01 02:15:17;;;;;;;5.53;3.50;;;;;;;8.52;67.55;101128.94;4902540;28;98418;-65
2021/06/01 02:17:43;;;;;;;4.45;3.85;;;;;;;8.49;67.41;101132.13;4869331;28;128869;-64
2021/06/01 02:20:09;;;;;;;4.45;3.97;;;;;;;8.38;67.71;101127.59;4902586;28;118113;-64
2021/06/01 02:25:32;;;;;;;4.43;3.45;;;;;;;8.26;67.79;101129.44;4883884;28;98489;-64
2021/06/01 02:28:17;;;;;;;4.75;3.75;;;;;;;8.10;68.40;101125.59;4901141;28;98258;-65
2021/06/01 02:31:00;;;;;;;5.05;4.03;;;;;;;8.00;68.89;101128.88;4868481;28;100269;-68
2021/06/01 02:33:26;;;;;;;5.15;3.90;;;;;;;8.09;68.59;101124.75;4902177;28;97989;-64
2021/06/01 02:35:53;;;;;;;5.20;3.88;;;;;;;8.32;68.00;101115.88;4882798;28;98367;-64
2021/06/01 02:38:19;;;;;;;4.30;3.65;;;;;;;8.35;67.74;101109.22;4883095;28;112294;-65
2021/06/01 02:40:45;;;;;;;4.72;3.58;;;;;;;8.39;67.29;101115.78;4867490;28;97848;-68
2021/06/01 02:43:13;;;;;;;4.45;3.75;;;;;;;8.16;68.04;101123.84;4867383;28;98448;-64
2021/06/01 02:45:41;;;;;;;5.07;3.53;;;;;;;8.02;68.55;101124.09;4901056;28;98210;-65
2021/06/01 02:48:07;;;;;;;3.78;3.40;;;;;;;8.02;68.49;101123.28;4900334;28;103394;-64
2021/06/01 02:50:34;;;;;;;4.95;3.88;;;;;;;7.92;69.14;101115.78;4890410;28;98237;-68
2021/06/01 02:53:01;;;;;;;5.40;3.92;;;;;;;7.97;68.81;101121.28;4902043;28;98383;-64
2021/06/01 02:55:27;;;;;;;4.38;3.58;;;;;;;8.15;68.14;101109.59;4902304;28;98693;-64
2021/06/01 02:57:53;;;;;;;3.60;3.22;;;;;;;8.00;68.40;101114.63;4884770;28;119342;-64
2021/06/01 03:00:22;;;;;;;4.47;3.70;;;;;;;7.84;68.84;101119.66;4920083;28;98430;-65
2021/06/01 03:02:48;;;;;;;5.00;3.78;;;;;;;7.71;68.85;101116.38;4919491;28;110402;-68
2021/06/01 03:05:14;;;;;;;5.28;3.45;;;;;;;8.07;68.57;101109.97;4919375;28;98850;-64
2021/06/01 03:07:41;;;;;;;5.25;3.85;;;;;;;7.83;69.32;101112.66;4905831;28;98483;-68
2021/06/01 03:10:11;;;;;;;5.00;3.88;;;;;;;7.71;69.26;101111.84;4883218;28;98192;-68
2021/06/01 03:15:11;;;;;;;5.10;4.32;;;;;;;7.78;68.96;101106.31;4898861;28;98586;-65
2021/06/01 03:17:37;;;;;;;5.75;4.07;;;;;;;7.97;69.07;101105.16;4900986;28;107003;-68
2021/06/01 03:20:05;;;;;;;5.43;3.95;;;;;;;7.94;68.83;101107.50;4919186;28;122449;-65
2021/06/01 03:22:32;;;;;;;4.97;3.60;;;;;;;7.74;68.59;101105.16;4919272;28;107369;-65
2021/06/01 03:24:58;;;;;;;4.72;3.83;;;;;;;8.15;68.06;101098.84;4919205;28;117423;-68
2021/06/01 03:27:24;;;;;;;5.90;3.65;;;;;;;8.12;67.74;101107.38;4918666;28;127942;-68
2021/06/01 03:29:50;;;;;;;4.63;3.42;;;;;;;8.26;67.11;101103.41;4919133;28;114455;-65
2021/06/01 03:32:16;;;;;;;4.75;3.72;;;;;;;8.32;67.39;101107.81;4868875;28;123421;-68
2021/06/01 03:34:42;;;;;;;6.65;4.00;;;;;;;8.21;67.69;101103.25;4919233;28;128350;-64
2021/06/01 03:37:08;;;;;;;6.20;3.75;;;;;;;8.28;67.77;101111.19;4918302;28;127872;-68
2021/06/01 03:39:34;;;;;;;6.50;4.00;;;;;;;8.56;66.98;101113.16;4899902;28;128053;-65
2021/06/01 03:42:00;;;;;;;7.22;3.63;;;;;;;8.64;66.22;101120.03;4920078;28;97869;-68
2021/06/01 03:44:26;;;;;;;4.65;3.72;;;;;;;8.77;66.14;101107.13;4918481;28;128726;-68
2021/06/01 03:46:52;;;;;;;5.18;3.63;;;;;;;8.75;66.01;101108.44;4904673;28;127983;-64
2021/06/01 03:49:18;;;;;;;5.10;3.70;;;;;;;8.69;66.12;101112.09;4899492;28;125528;-64
2021/06/01 03:51:44;;;;;;;6.15;3.97;;;;;;;8.76;66.71;101110.91;4919777;28;97697;-68
2021/06/01 03:54:10;;;;;;;4.25;3.50;;;;;;;8.82;66.38;101117.16;4918706;28;125825;-65
2021/06/01 03:56:37;;;;;;;4.03;3.45;;;;;;;8.90;66.65;101124.03;4918561;28;128762;-68
2021/06/01 03:59:04;;;;;;;4.25;3.60;;;;;;;9.14;65.98;101113.97;4919576;28;98630;-68
2021/06/01 04:01:30;;;;;;;6.15;3.80;;;;;;;9.03;66.05;101116.47;4900877;28;97976;-68
2021/06/01 04:03:56;;;;;;;4.18;3.70;;;;;;;9.30;65.75;101113.19;4919344;28;114860;-68
2021/06/01 04:06:23;;;;;;;5.90;3.72;;;;;;;9.30;65.96;101121.25;4918755;28;127021;-64
2021/06/01 04:08:49;;;;;;;6.68;4.00;;;;;;;9.45;65.31;101121.53;4918833;28;121027;-65
2021/06/01 04:11:15;;;;;;;4.68;3.78;;;;;;;9.41;65.92;101124.94;4899426;28;122839;-65
2021/06/01 04:13:41;;;;;;;4.60;3.80;;;;;;;9.40;66.41;101126.81;4906225;28;99299;-65
2021/06/01 04:16:07;;;;;;;6.68;3.85;;;;;;;9.64;65.34;101124.78;4919594;28;99166;-65
2021/06/01 04:18:33;;;;;;;4.53;3.60;;;;;;;9.59;64.89;101111.25;4919200;28;98194;-68
2021/06/01 04:21:00;;;;;;;5.63;3.53;;;;;;;9.60;65.32;101115.59;4900943;28;122258;-65
2021/06/01 04:23:26;;;;;;;5.90;4.13;;;;;;;9.69;64.68;101106.03;4919288;28;99145;-65
2021/06/01 04:25:53;;;;;;;4.15;3.75;;;;;;;9.63;65.40;101114.25;4918174;28;115971;-68
2021/06/01 04:28:19;;;;;;;6.05;4.18;;;;;;;9.63;65.71;101114.25;4885451;28;117747;-65
2021/06/01 04:30:45;;;;;;;5.88;4.20;;;;;;;9.74;65.46;101111.47;4900751;28;123072;-68
2021/06/01 04:33:12;;;;;;;4.32;3.65;;;;;;;10.00;64.99;101107.28;4885213;28;99770;-69
2021/06/01 04:35:38;;;;;;;5.22;3.90;;;;;;;10.15;65.26;101113.97;4887568;28;113328;-68
2021/06/01 04:38:04;;;;;;;6.15;4.15;;;;;;;10.21;65.01;101111.06;4903990;28;105294;-65
2021/06/01 04:40:31;;;;;;;5.63;4.13;;;;;;;10.05;65.61;101110.03;4880109;28;98161;-68
2021/06/01 04:42:57;;;;;;;4.90;4.40;;;;;;;10.24;65.42;101121.34;4900860;28;112672;-68
2021/06/01 04:45:23;;;;;;;6.60;5.18;;;;;;;10.20;64.95;101120.22;4902431;28;98820;-69
2021/06/01 04:47:49;;;;;;;6.38;5.00;;;;;;;10.31;65.33;101111.25;4885000;28;104458;-65
2021/06/01 04:50:16;;;;;;;6.78;4.75;;;;;;;10.32;65.65;101114.75;4885213;28;98088;-68
2021/06/01 04:52:42;;;;;;;6.20;5.22;;;;;;;10.62;64.66;101114.31;4885130;28;98901;-69
2021/06/01 04:55:10;;;;;;;6.25;5.10;;;;;;;10.81;64.29;101121.03;4867518;28;128016;-68
2021/06/01 04:57:39;;;;;;;6.63;5.28;;;;;;;10.93;63.76;101126.28;4900679;28;97733;-68
2021/06/01 05:00:07;;;;;;;7.05;5.28;;;;;;;10.84;64.58;101119.69;4902201;28;110959;-65
2021/06/01 05:02:33;;;;;;;6.93;5.22;;;;;;;10.87;64.57;101113.78;4902478;28;98863;-69
2021/06/01 05:04:59;;;;;;;6.65;5.60;;;;;;;11.14;63.29;101113.00;4884994;28;98027;-69
2021/06/01 05:07:25;;;;;;;7.05;5.38;;;;;;;11.38;63.87;101113.47;4883841;28;122818;-69
2021/06/01 05:09:52;;;;;;;5.95;4.97;;;;;;;11.63;62.29;101118.25;4913148;28;123077;-69
2021/06/01 05:12:18;;;;;;;7.10;5.57;;;;;;;11.80;62.25;101106.25;4922132;28;98166;-65
2021/06/01 05:14:44;;;;;;;6.80;5.57;;;;;;;11.73;62.44;101102.13;4920907;28;128266;-65
2021/06/01 05:17:10;;;;;;;7.68;5.65;;;;;;;12.02;61.62;101100.75;4903075;28;127214;-69
2021/06/01 05:19:36;;;;;;;7.18;5.72;;;;;;;12.04;61.75;101098.59;4920922;28;122050;-65
2021/06/01 05:22:02;;;;;;;6.93;6.00;;;;;;;12.50;60.52;101093.41;4921160;28;127930;-65
2021/06/01 05:24:28;;;;;;;7.88;5.57;;;;;;;12.61;60.73;101098.84;4902477;28;114100;-69
2021/06/01 05:26:54;;;;;;;7.00;5.82;;;;;;;12.70;59.96;101091.84;4920574;28;127924;-65
2021/06/01 05:29:20;;;;;;;6.75;5.40;;;;;;;13.01;59.48;101101.66;4921169;28;102095;-65
2021/06/01 05:31:53;;;;;;;7.15;5.80;;;;;;;13.18;58.92;101084.34;4886981;28;128691;-65
2021/06/01 05:34:21;;;;;;;7.80;6.22;;;;;;;13.27;57.85;101091.69;4921664;28;98617;-65
2021/06/01 05:36:47;;;;;;;6.93;5.35;;;;;;;13.75;56.95;101088.69;4920677;28;98366;-66
2021/06/01 05:39:14;;;;;;;7.38;5.80;;;;;;;13.87;56.71;101093.81;4920889;28;98051;-65
2021/06/01 05:41:40;;;;;;;7.07;5.35;;;;;;;14.08;56.00;101089.19;4921339;28;98226;-65
2021/06/01 05:44:06;;;;;;;5.75;5.22;;;;;;;14.00;56.14;101096.78;4902193;28;98259;-65
2021/06/01 05:46:33;;;;;;;6.05;5.07;;;;;;;14.45;55.57;101097.69;4920064;28;127671;-66
2021/06/01 05:49:00;;;;;;;6.50;4.97;;;;;;;15.00;53.13;101089.56;4920353;28;98185;-69
2021/06/01 05:51:35;;;;;;;6.57;5.05;;;;;;;15.99;51.31;101091.19;4902367;28;100685;-70
2021/06/01 05:54:05;;;;;;;6.75;4.68;;;;;;;16.33;49.47;101089.16;4921187;28;98273;-66
2021/06/01 05:56:31;;;;;;;4.90;4.35;;;;;;;18.50;44.46;101076.06;4921216;28;97961;-66
2021/06/01 05:58:57;;;;;;;4.70;4.10;;;;;;;19.82;41.68;101079.53;4910700;28;97782;-70
2021/06/01 06:05:05;;;;;;;5.00;4.60;;;;;;;20.18;40.46;101087.53;4918358;28;98631;-66
2021/06/01 06:07:31;;;;;;;4.85;4.35;;;;;;;20.86;39.39;101087.22;4918429;28;112008;-66
2021/06/01 06:09:57;;;;;;;4.18;3.78;;;;;;;20.91;37.51;101087.88;4913075;28;97967;-66
2021/06/01 06:12:24;;;;;;;5.45;4.30;;;;;;;19.68;40.20;101096.00;4920314;28;98398;-70
2021/06/01 06:14:50;;;;;;;4.65;4.20;;;;;;;21.22;38.03;101092.38;4906628;28;99021;-66
2021/06/01 06:17:46;;;;;;;4.38;3.83;;;;;;;25.30;31.32;101088.72;4920804;28;98474;-70
2021/06/01 06:20:13;;;;;;;4.05;3.60;;;;;;;25.84;29.32;101096.47;4919810;28;99024;-67
2021/06/01 06:22:39;;;;;;;4.40;3.10;;;;;;;25.64;29.29;101098.31;4920983;28;98824;-71
2021/06/01 06:25:10;;;;;;;3.60;3.03;;;;;;;24.31;30.94;101101.09;4919684;28;98064;-71
2021/06/01 06:27:36;;;;;;;3.72;3.42;;;;;;;26.82;27.81;101095.63;4915047;28;97904;-67
2021/06/01 06:30:05;;;;;;;5.15;3.35;;;;;;;25.38;29.92;101105.09;4917073;28;104033;-71
2021/06/01 06:32:31;;;;;;;3.30;2.90;;;;;;;24.94;30.40;101101.47;4900935;28;106215;-70
2021/06/01 06:34:57;;;;;;;4.07;3.10;;;;;;;24.92;29.89;101087.25;4901825;28;100182;-66
2021/06/01 06:37:23;;;;;;;15.48;3.30;;;;;;;25.44;30.01;101078.06;4885420;28;106641;-66
2021/06/01 06:39:50;;;;;;;3.25;2.80;;;;;;;25.63;30.43;101082.91;4919529;28;97970;-70
2021/06/01 06:42:19;;;;;;;3.40;2.80;;;;;;;23.49;33.36;101088.09;4919047;28;109468;-70
2021/06/01 06:44:53;;;;;;;6.65;2.90;;;;;;;22.27;35.51;101091.78;4920263;28;99235;-65
2021/06/01 06:47:27;;;;;;;5.28;2.83;;;;;;;22.86;34.52;101082.66;4920853;28;98391;-70
2021/06/01 06:49:54;;;;;;;4.97;2.75;;;;;;;22.13;35.77;101087.66;4920305;28;97828;-70
2021/06/01 06:52:21;;;;;;;3.70;3.00;;;;;;;22.98;34.58;101085.50;4902122;28;98962;-66
2021/06/01 06:54:47;;;;;;;3.10;2.60;;;;;;;22.54;35.17;101081.44;4918303;28;104798;-66
2021/06/01 06:57:13;;;;;;;4.35;2.60;;;;;;;21.89;37.01;101085.47;4919094;28;98455;-70
2021/06/01 06:59:39;;;;;;;5.38;2.80;;;;;;;22.16;35.82;101076.81;4906651;28;100089;-66
2021/06/01 07:02:05;;;;;;;4.15;2.45;;;;;;;22.42;36.34;101070.38;4902451;28;124537;-66
2021/06/01 07:04:31;;;;;;;3.33;2.60;;;;;;;22.45;35.63;101078.78;4900988;28;98127;-66
2021/06/01 07:06:58;;;;;;;3.83;2.25;;;;;;;22.24;35.89;101078.75;4918872;28;112804;-66
2021/06/01 07:09:25;;;;;;;2.38;2.10;;;;;;;23.21;34.27;101068.66;4869826;28;97802;-70
2021/06/01 07:11:51;;;;;;;3.70;2.30;;;;;;;23.43;33.92;101061.97;4906858;28;98873;-71
2021/06/01 07:14:17;;;;;;;2.97;1.98;;;;;;;23.85;34.10;101059.88;4881852;28;128243;-71
2021/06/01 07:16:43;;;;;;;2.33;1.80;;;;;;;23.88;33.52;101053.69;4900468;28;97991;-66
2021/06/01 07:19:09;;;;;;;2.88;1.73;;;;;;;22.21;34.42;101060.19;4901124;28;113096;-66
2021/06/01 07:21:35;;;;;;;3.22;1.52;;;;;;;23.09;32.85;101043.88;4901434;28;98855;-66
2021/06/01 07:24:01;;;;;;;1.80;1.40;;;;;;;23.81;32.22;101045.19;4909792;28;126539;-70
2021/06/01 07:26:27;;;;;;;5.30;1.65;;;;;;;22.89;34.59;101057.28;4915101;28;114755;-70
2021/06/01 07:28:54;;;;;;;2.00;1.40;;;;;;;22.61;34.60;101050.72;4899617;28;122601;-71
2021/06/01 07:31:20;;;;;;;2.88;1.50;;;;;;;22.63;33.37;101045.69;4918731;28;127978;-71
2021/06/01 07:33:46;;;;;;;3.53;1.85;;;;;;;22.39;34.72;101049.06;4919501;28;98434;-70
2021/06/01 07:36:12;;;;;;;3.03;1.35;;;;;;;22.47;34.98;101046.28;4881479;28;97942;-66
2021/06/01 07:38:39;;;;;;;3.70;1.20;;;;;;;23.64;30.72;101035.19;4872122;28;97969;-71
2021/06/01 07:41:06;;;;;;;4.07;1.10;;;;;;;23.29;32.64;101032.03;4885909;28;98560;-71
2021/06/01 07:43:33;;;;;;;2.38;1.50;;;;;;;22.71;33.44;101036.56;4885333;28;107153;-71
2021/06/01 07:45:59;;;;;;;3.08;1.20;;;;;;;22.78;34.29;101037.63;4919171;28;98306;-66
2021/06/01 07:48:25;;;;;;;2.55;1.25;;;;;;;23.10;32.28;101029.78;4919520;28;104424;-66
2021/06/01 07:50:51;;;;;;;6.07;1.25;;;;;;;23.08;32.27;101026.59;4885308;28;98408;-66
2021/06/01 07:53:18;;;;;;;1.80;1.30;;;;;;;24.45;30.22;101027.19;4909378;28;98824;-70
2021/06/01 07:55:44;;;;;;;4.20;1.48;;;;;;;24.48;29.75;101019.03;4886215;28;127075;-70
2021/06/01 07:58:10;;;;;;;1.50;1.17;;;;;;;24.14;30.36;101019.53;4875439;28;121989;-66
2021/06/01 08:00:36;;;;;;;2.58;1.30;;;;;;;24.26;29.73;101016.75;4906586;28;128138;-66
2021/06/01 08:03:03;;;;;;;2.00;1.15;;;;;;;26.11;26.80;101006.41;4916654;28;128240;-71
2021/06/01 08:05:30;;;;;;;1.50;1.00;;;;;;;25.11;29.51;101012.97;4912690;28;102266;-66
2021/06/01 08:07:56;;;;;;;2.65;0.85;;;;;;;24.55;29.39;101010.16;4899376;28;108631;-70
2021/06/01 08:10:22;;;;;;;5.35;1.10;;;;;;;24.82;29.85;101014.09;4902443;28;128616;-70
2021/06/01 08:12:49;;;;;;;3.50;1.17;;;;;;;25.86;28.06;101008.56;4906169;28;98452;-66
2021/06/01 08:15:18;;;;;;;3.25;1.50;;;;;;;24.71;29.88;101007.47;4907851;28;98339;-66
2021/06/01 08:17:45;;;;;;;2.70;1.45;;;;;;;24.45;31.04;101007.91;4905329;28;98150;-70
2021/06/01 08:20:17;;;;;;;3.83;1.48;;;;;;;24.26;31.72;101019.50;4918616;28;98999;-70
2021/06/01 08:22:45;;;;;;;2.22;1.42;;;;;;;24.40;31.27;100999.88;4922220;28;98474;-71
2021/06/01 08:25:11;;;;;;;2.25;1.40;;;;;;;24.64;31.37;101005.34;4921796;28;98070;-66
2021/06/01 08:27:38;;;;;;;3.28;1.33;;;;;;;24.12;32.01;100999.78;4921944;28;97779;-70
2021/06/01 08:30:07;;;;;;;3.10;1.52;;;;;;;23.34;32.79;101001.53;4921153;28;127851;-71
2021/06/01 08:32:34;;;;;;;3.08;1.40;;;;;;;23.51;33.01;101000.56;4920447;28;101038;-66
2021/06/01 08:35:00;;;;;;;2.97;1.40;;;;;;;23.25;34.08;101001.66;4903916;28;98510;-66
2021/06/01 08:37:26;;;;;;;2.22;1.50;;;;;;;23.50;32.90;100993.44;4922087;28;97922;-70
2021/06/01 08:39:52;;;;;;;3.38;1.40;;;;;;;23.47;32.85;100988.63;4921651;28;128555;-70
2021/06/01 08:42:18;;;;;;;2.65;1.38;;;;;;;23.14;34.09;100991.41;4921723;28;119900;-71
2021/06/01 08:44:51;;;;;;;3.05;1.50;;;;;;;22.94;32.49;100991.13;4920431;28;126650;-66
2021/06/01 08:47:20;;;;;;;2.85;1.52;;;;;;;22.80;34.82;100985.09;4898986;28;104257;-66
2021/06/01 08:49:47;;;;;;;3.53;1.50;;;;;;;22.82;34.00;100993.81;4899658;28;99300;-71
2021/06/01 08:52:15;;;;;;;2.72;1.45;;;;;;;23.11;33.00;100995.66;4902739;28;98210;-66
2021/06/01 08:54:42;;;;;;;2.47;1.58;;;;;;;23.14;34.07;100983.97;4902864;28;98098;-71
2021/06/01 08:57:08;;;;;;;2.70;1.80;;;;;;;22.98;34.37;100992.06;4884698;28;103721;-71
2021/06/01 08:59:35;;;;;;;3.95;1.70;;;;;;;23.08;34.57;100995.53;4915135;28;98374;-71
2021/06/01 09:02:02;;;;;;;3.72;1.73;;;;;;;23.02;33.33;100995.72;4905864;28;98657;-66
2021/06/01 09:04:54;;;;;;;3.53;1.73;;;;;;;22.68;34.86;100994.09;4884995;28;99918;-66
2021/06/01 09:07:34;;;;;;;4.32;1.75;;;;;;;22.24;35.32;100990.88;4902663;28;97946;-71
2021/06/01 09:10:49;;;;;;;2.70;1.60;;;;;;;22.66;35.55;100990.06;4903215;28;98616;-71
2021/06/01 09:21:32;;;;;;;3.15;1.95;;;;;;;23.38;34.31;100976.91;4908840;28;97965;-71
2021/06/01 09:24:01;;;;;;;3.67;1.90;;;;;;;23.22;35.21;100977.56;4884281;28;100581;-66
2021/06/01 09:29:20;;;;;;;3.88;2.20;;;;;;;24.16;32.34;100962.94;4917434;28;98101;-66
2021/06/01 09:32:07;;;;;;;2.95;1.90;;;;;;;24.43;32.46;100958.66;4921930;28;98564;-71
2021/06/01 09:34:39;;;;;;;4.95;2.10;;;;;;;24.66;33.01;100967.19;4921139;28;98485;-71
2021/06/01 09:37:27;;;;;;;3.25;2.15;;;;;;;24.12;32.93;100959.28;4905241;28;98038;-66
2021/06/01 09:40:17;;;;;;;4.22;1.80;;;;;;;24.86;31.73;100953.56;4904237;28;97905;-66
2021/06/01 09:42:49;;;;;;;3.50;1.50;;;;;;;24.45;32.02;100956.38;4921634;28;98725;-71
2021/06/01 09:45:19;;;;;;;4.55;2.33;;;;;;;22.99;34.41;100951.63;4915474;28;98187;-66
2021/06/01 09:48:05;;;;;;;2.70;2.03;;;;;;;23.66;34.28;100952.34;4909757;28;98124;-66
2021/06/01 09:53:29;;;;;;;3.97;2.20;;;;;;;23.89;32.80;100958.97;4900798;28;97965;-70
2021/06/01 09:55:56;;;;;;;4.00;1.92;;;;;;;24.15;32.28;100947.56;4901394;28;98716;-66
2021/06/01 09:58:28;;;;;;;3.95;2.20;;;;;;;24.66;32.77;100945.16;4901082;28;98404;-71
2021/06/01 10:00:54;;;;;;;;;;;;;;;26.57;29.64;100934.78;4883474;28;98176;-66
2021/06/01 10:03:22;;;;;;;5.13;2.75;;;;;;;27.92;27.36;100935.56;4901572;28;97983;-67
2021/06/01 10:05:50;;;;;;;2.70;2.00;;;;;;;27.85;27.50;100937.03;4901621;28;98159;-66
2021/06/01 10:08:25;;;;;;;4.03;2.20;;;;;;;28.57;26.25;100935.22;4883463;28;98036;-71
2021/06/01 10:11:05;;;;;;;3.10;1.92;;;;;;;27.35;27.38;100936.25;4897283;28;98003;-66
2021/06/01 10:13:35;;;;;;;3.58;2.10;;;;;;;28.60;26.12;100940.81;4918596;28;99118;-66
2021/06/01 10:16:06;;;;;;;7.07;2.67;;;;;;;29.01;25.71;100938.09;4902539;28;98536;-72
2021/06/01 10:18:32;;;;;;;4.65;2.63;;;;;;;29.25;25.24;100935.94;4903140;28;97909;-73
2021/06/01 10:21:03;;;;;;;2.28;2.00;;;;;;;28.13;25.76;100946.91;4920918;28;98198;-67
2021/06/01 10:23:33;;;;;;;3.60;2.20;;;;;;;26.68;27.48;100933.84;4920728;28;100006;-67
2021/06/01 10:25:59;;;;;;;2.90;2.13;;;;;;;26.52;28.51;100932.31;4919910;28;98338;-72
2021/06/01 10:28:28;;;;;;;2.78;2.00;;;;;;;26.00;29.07;100925.28;4919954;28;98646;-66
2021/06/01 10:30:56;;;;;;;2.58;2.00;;;;;;;27.10;28.86;100921.16;4906167;28;97964;-72
2021/06/01 10:33:23;;;;;;;2.90;2.20;;;;;;;28.47;25.99;100910.94;4901358;28;98044;-67
2021/06/01 10:52:25;;;;;;;4.32;2.08;;;;;;;27.47;27.77;100882.66;4918504;28;97891;-67
2021/06/01 10:55:08;;;;;;;7.07;2.15;;;;;;;28.31;26.05;100878.66;4919534;28;107849;-67
2021/06/01 10:57:57;;;;;;;3.08;1.95;;;;;;;28.92;26.88;100878.53;4919816;28;99250;-72
2021/06/01 11:03:20;;;;;;;3.63;2.05;;;;;;;27.68;27.16;100871.09;4919561;28;97960;-73
2021/06/01 11:05:59;;;;;;;2.83;2.20;;;;;;;29.09;25.47;100864.84;4919811;28;99075;-68
2021/06/01 11:08:42;;;;;;;4.22;2.20;;;;;;;27.85;26.45;100875.31;4907144;28;97745;-67
2021/06/01 11:11:23;;;;;;;2.70;2.10;;;;;;;26.29;28.66;100868.66;4901739;28;98410;-73
2021/06/01 11:13:54;;;;;;;4.33;2.10;;;;;;;27.94;27.16;100858.41;4901671;28;98205;-67
2021/06/01 11:16:20;;;;;;;7.37;2.90;;;;;;;29.34;26.04;100848.38;4882609;28;99294;-67
2021/06/01 11:18:53;;;;;;;6.25;2.78;;;;;;;30.56;23.49;100855.31;4894805;28;98318;-68
2021/06/01 11:21:36;;;;;;;3.40;2.22;;;;;;;30.63;23.12;100851.75;4887896;28;98108;-74
2021/06/01 11:35:38;;;;;;;;;;;;;;;27.63;27.85;100832.69;4896221;28;98000;-74
2021/06/01 11:38:18;;;;;;;3.47;2.78;;;;;;;28.41;25.98;100819.00;4895874;28;98514;-74
2021/06/01 11:41:00;;;;;;;2.85;2.13;;;;;;;28.08;26.25;100820.63;4920041;28;98502;-68
2021/06/01 11:43:26;;;;;;;2.20;2.00;;;;;;;28.07;26.43;100821.78;4903042;28;98148;-68
2021/06/01 11:46:09;;;;;;;3.00;2.30;;;;;;;27.11;27.11;100824.00;4919082;28;97859;-74
2021/06/01 11:51:27;;;;;;;3.72;2.28;;;;;;;27.13;28.24;100810.59;4899530;28;98490;-68
2021/06/01 11:54:09;;;;;;;4.75;2.25;;;;;;;27.37;28.50;100812.13;4919959;28;98231;-68
2021/06/01 11:56:57;;;;;;;2.88;2.15;;;;;;;27.41;28.97;100814.97;4909979;28;97891;-76
2021/06/01 12:04:56;;;;;;;2.63;2.17;;;;;;;29.02;27.09;100800.19;4880949;28;98405;-75
2021/06/01 12:19:13;;;;;;;3.13;2.58;;;;;;;28.41;26.33;100784.97;4916793;28;98035;-68
2021/06/01 12:21:50;;;;;;;3.65;2.42;;;;;;;28.51;27.59;100779.53;4918000;28;98862;-75
2021/06/01 12:24:24;;;;;;;4.28;2.45;;;;;;;29.07;27.30;100772.88;4920158;28;98665;-69
2021/06/01 12:32:22;;;;;;;3.78;2.47;;;;;;;30.04;24.52;100765.03;4917919;28;98145;-76
2021/06/01 12:34:58;;;;;;;4.22;2.55;;;;;;;29.77;26.29;100770.09;4919973;28;98522;-69
2021/06/01 12:43:11;;;;;;;3.28;2.53;;;;;;;28.24;28.09;100764.97;4919055;28;98276;-69
2021/06/01 13:08:17;;;;;;;3.45;2.63;;;;;;;27.17;29.28;100730.44;4903021;28;98450;-68
2021/06/01 13:21:48;;;;;;;3.35;2.97;;;;;;;26.64;30.91;100716.56;4885161;28;98082;-74
2021/06/01 13:30:12;;;;;;;5.22;2.47;;;;;;;26.14;31.06;100710.16;4902331;28;97852;-74
2021/06/01 13:30:47;;;;;;;5.38;2.70;;;;;;;26.35;30.74;100712.50;4901599;28;98458;-74
2021/06/01 13:47:11;;;;;;;3.42;2.50;;;;;;;25.44;32.72;100698.13;4920276;28;98135;-68
2021/06/01 13:49:42;;;;;;;3.70;2.80;;;;;;;25.33;32.31;100688.03;4887529;28;99039;-74
2021/06/01 14:10:54;;;;;;;4.35;2.83;;;;;;;26.34;30.98;100678.56;4885829;28;98021;-73